Time;durP1;ratioP1;P1;durP2;ratioP2;P2;SDS_P1;SDS_P2;PMS_P1;PMS_P2;Temp;Humidity;BMP_temperature;BMP_pressure;BME280_temperature;BME280_humidity;BME280_pressure;Samples;Min_cycle;Max_cycle;Signal;HPM_P1;HPM_P2
2021/09/19 00:01:44;;;;;;;5.22;3.72;;;;;;;13.93;83.99;100794.66;5021931;28;20123;-81
2021/09/19 00:04:09;;;;;;;6.28;3.60;;;;;;;13.93;83.56;100799.09;5046300;28;20082;-82
2021/09/19 00:06:34;;;;;;;6.70;4.30;;;;;;;13.78;83.30;100801.09;5001125;28;20018;-82
2021/09/19 00:09:00;;;;;;;8.63;3.90;;;;;;;13.73;83.80;100791.47;5028358;28;20038;-82
2021/09/19 00:11:25;;;;;;;6.88;4.07;;;;;;;13.74;83.65;100795.84;5026365;28;20038;-82
2021/09/19 00:13:50;;;;;;;5.78;3.72;;;;;;;13.75;84.20;100794.94;5024588;28;20171;-82
2021/09/19 00:16:17;;;;;;;8.05;4.13;;;;;;;13.75;83.51;100792.28;5025182;28;20377;-82
2021/09/19 00:18:43;;;;;;;7.47;3.47;;;;;;;13.69;83.37;100789.72;5014990;28;20036;-82
2021/09/19 00:21:08;;;;;;;8.90;4.00;;;;;;;13.64;83.55;100791.56;5025845;28;20042;-82
2021/09/19 00:23:34;;;;;;;8.32;4.40;;;;;;;13.68;82.86;100798.59;5027005;28;20034;-82
2021/09/19 00:25:59;;;;;;;7.78;3.53;;;;;;;13.70;82.98;100787.06;5008698;28;20095;-82
2021/09/19 00:28:24;;;;;;;6.68;3.85;;;;;;;13.65;82.47;100788.00;5017959;28;20033;-83
2021/09/19 00:30:50;;;;;;;6.90;3.83;;;;;;;13.65;82.61;100794.22;5026876;28;20502;-82
2021/09/19 00:33:15;;;;;;;5.10;3.53;;;;;;;13.61;81.86;100791.63;5025634;28;20485;-83
2021/09/19 00:35:40;;;;;;;5.60;3.67;;;;;;;13.61;82.43;100792.50;5027810;28;20034;-83
2021/09/19 00:38:06;;;;;;;8.25;4.15;;;;;;;13.58;81.40;100793.41;4999583;28;20680;-82
2021/09/19 00:40:31;;;;;;;6.53;3.63;;;;;;;13.57;80.42;100794.31;5027083;28;20400;-82
2021/09/19 00:42:56;;;;;;;7.88;3.45;;;;;;;13.37;80.93;100802.53;5022785;28;20502;-83
2021/09/19 00:45:23;;;;;;;5.43;3.50;;;;;;;13.37;80.68;100804.31;4997383;28;20034;-83
2021/09/19 00:47:48;;;;;;;5.13;3.15;;;;;;;13.40;80.97;100793.66;5026341;28;20037;-82
2021/09/19 00:50:17;;;;;;;6.75;3.92;;;;;;;13.47;80.55;100805.97;5023290;28;20499;-83
2021/09/19 00:52:44;;;;;;;6.95;3.75;;;;;;;13.45;80.42;100801.56;5016830;28;20458;-83
2021/09/19 00:55:12;;;;;;;6.80;3.58;;;;;;;13.44;79.33;100795.41;5022930;28;20480;-82
2021/09/19 00:57:44;;;;;;;10.27;3.70;;;;;;;13.39;79.05;100797.22;5025279;28;20500;-82
2021/09/19 01:00:11;;;;;;;5.95;3.45;;;;;;;13.28;79.66;100801.78;5027497;28;20030;-82
2021/09/19 01:02:37;;;;;;;6.43;3.55;;;;;;;13.26;80.35;100800.91;5025029;28;20034;-83
2021/09/19 01:05:05;;;;;;;6.30;3.75;;;;;;;13.31;80.45;100801.75;5033059;28;20059;-82
2021/09/19 01:07:30;;;;;;;6.40;3.63;;;;;;;13.34;80.34;100799.06;5046426;28;20037;-81
2021/09/19 01:09:56;;;;;;;6.60;4.07;;;;;;;13.30;80.04;100792.03;5044642;28;20155;-82
2021/09/19 01:12:24;;;;;;;6.72;3.40;;;;;;;13.26;79.21;100795.63;5045409;28;20094;-82
2021/09/19 01:14:51;;;;;;;5.05;3.42;;;;;;;13.16;78.84;100801.00;5044845;28;20029;-82
2021/09/19 01:17:18;;;;;;;5.43;3.15;;;;;;;13.06;77.57;100794.06;5043915;28;20033;-83
2021/09/19 01:19:45;;;;;;;8.43;3.97;;;;;;;12.92;75.50;100791.59;5043737;28;20480;-82
2021/09/19 01:22:12;;;;;;;7.07;3.40;;;;;;;12.95;75.31;100798.63;5046700;28;20055;-82
2021/09/19 01:24:37;;;;;;;5.25;2.88;;;;;;;12.97;75.62;100798.59;5047961;28;20029;-82
2021/09/19 01:27:04;;;;;;;7.10;3.17;;;;;;;12.97;74.31;100798.59;5047107;28;20037;-82
2021/09/19 01:29:29;;;;;;;5.78;2.90;;;;;;;13.02;75.06;100804.72;5047503;28;20484;-81
2021/09/19 01:31:56;;;;;;;11.27;3.00;;;;;;;12.96;74.09;100800.38;5047362;28;20048;-82
2021/09/19 01:34:22;;;;;;;6.05;2.83;;;;;;;12.94;73.58;100803.06;5045227;28;20096;-82
2021/09/19 01:36:47;;;;;;;8.13;2.90;;;;;;;12.98;73.50;100806.53;5047917;28;20062;-81
2021/09/19 01:39:12;;;;;;;5.38;2.72;;;;;;;12.89;73.14;100803.97;5044740;28;20407;-82
2021/09/19 01:41:38;;;;;;;4.15;2.88;;;;;;;12.92;73.42;100796.03;5048308;28;20064;-82
2021/09/19 01:44:04;;;;;;;5.13;2.78;;;;;;;12.92;72.33;100799.53;5044844;28;20085;-82
2021/09/19 01:46:31;;;;;;;5.38;3.15;;;;;;;13.01;73.09;100800.31;5047832;28;20053;-82
2021/09/19 01:48:56;;;;;;;4.28;2.45;;;;;;;13.01;71.80;100800.31;5045124;28;20041;-82
2021/09/19 01:51:21;;;;;;;5.10;2.97;;;;;;;13.00;71.96;100791.50;5037404;28;20029;-82
2021/09/19 01:53:50;;;;;;;5.47;3.28;;;;;;;12.97;71.49;100788.00;5045826;28;20037;-82
2021/09/19 01:56:16;;;;;;;4.97;2.60;;;;;;;12.99;72.29;100787.09;5039923;28;20064;-82
2021/09/19 01:58:43;;;;;;;4.53;3.17;;;;;;;12.96;72.14;100789.78;5049708;28;20045;-81
2021/09/19 02:01:10;;;;;;;5.55;2.42;;;;;;;12.87;71.65;100782.81;5033372;28;20044;-81
2021/09/19 02:03:39;;;;;;;4.90;2.90;;;;;;;12.83;72.14;100790.81;5046591;28;20029;-80
2021/09/19 02:06:07;;;;;;;4.88;2.55;;;;;;;12.79;72.25;100791.75;5049181;28;20051;-81
2021/09/19 02:08:36;;;;;;;4.93;3.00;;;;;;;12.80;72.48;100785.56;5039920;28;20037;-80
2021/09/19 02:11:04;;;;;;;4.85;3.10;;;;;;;12.82;71.28;100783.78;5050559;28;20036;-81
2021/09/19 02:13:30;;;;;;;6.20;3.35;;;;;;;12.80;71.60;100786.44;5048595;28;20055;-81
2021/09/19 02:15:56;;;;;;;5.13;2.83;;;;;;;12.82;71.90;100786.41;5047344;28;20036;-81
2021/09/19 02:18:21;;;;;;;6.60;2.70;;;;;;;12.84;71.99;100790.81;5047473;28;20488;-81
2021/09/19 02:20:47;;;;;;;5.88;3.00;;;;;;;12.84;71.28;100787.28;5048505;28;20121;-81
2021/09/19 02:23:12;;;;;;;4.07;2.63;;;;;;;12.81;71.40;100787.28;5049319;28;20068;-80
2021/09/19 02:25:38;;;;;;;4.43;2.63;;;;;;;12.79;72.05;100783.81;5050726;28;20395;-81
2021/09/19 02:28:03;;;;;;;5.85;2.60;;;;;;;12.74;71.88;100775.03;5041017;28;20033;-81
2021/09/19 02:30:28;;;;;;;4.85;3.00;;;;;;;12.68;71.12;100787.44;5049726;28;20495;-80
2021/09/19 02:32:54;;;;;;;6.22;2.90;;;;;;;12.67;70.20;100785.69;5046152;28;20385;-81
2021/09/19 02:35:19;;;;;;;4.57;3.10;;;;;;;12.62;70.86;100787.50;5049110;28;20052;-81
2021/09/19 02:37:47;;;;;;;5.60;2.80;;;;;;;12.59;71.55;100776.94;5046991;28;20044;-80
2021/09/19 02:40:14;;;;;;;4.68;2.47;;;;;;;12.59;70.71;100779.59;5047856;28;20055;-80
2021/09/19 02:42:40;;;;;;;4.43;2.40;;;;;;;12.57;70.66;100781.38;5046265;28;20037;-80
2021/09/19 02:45:09;;;;;;;6.85;3.15;;;;;;;12.61;70.44;100777.81;5047186;28;20038;-81
2021/09/19 02:47:34;;;;;;;6.22;3.00;;;;;;;12.52;71.03;100777.88;5046617;28;20087;-80
2021/09/19 02:50:00;;;;;;;6.65;2.75;;;;;;;12.54;71.00;100778.75;5020536;28;20061;-80
2021/09/19 02:52:25;;;;;;;4.82;2.92;;;;;;;12.57;71.02;100778.72;5049184;28;20083;-80
2021/09/19 02:54:51;;;;;;;4.07;2.58;;;;;;;12.50;70.93;100771.75;5045612;28;20049;-80
2021/09/19 02:57:16;;;;;;;4.65;2.45;;;;;;;12.48;70.48;100765.59;5045792;28;20044;-80
2021/09/19 02:59:41;;;;;;;4.00;2.60;;;;;;;12.45;70.86;100774.44;5033886;28;20037;-80
2021/09/19 03:02:07;;;;;;;5.78;2.80;;;;;;;12.46;71.02;100765.59;5047514;28;20045;-80
2021/09/19 03:04:32;;;;;;;3.90;2.28;;;;;;;12.48;70.20;100776.19;5045845;28;20037;-80
2021/09/19 03:06:58;;;;;;;4.70;2.80;;;;;;;12.46;70.02;100777.97;5034052;28;20041;-80
2021/09/19 03:09:23;;;;;;;5.95;3.03;;;;;;;12.36;69.19;100778.94;5047123;28;20072;-80
2021/09/19 03:11:49;;;;;;;4.80;2.63;;;;;;;12.34;68.96;100780.72;5043654;28;20044;-80
2021/09/19 03:14:14;;;;;;;3.67;2.53;;;;;;;12.37;69.10;100781.59;5046001;28;20053;-80
2021/09/19 03:16:39;;;;;;;6.40;3.00;;;;;;;12.34;68.93;100780.72;5045382;28;20037;-80
2021/09/19 03:19:05;;;;;;;5.18;2.83;;;;;;;12.37;69.08;100773.66;5036086;28;20041;-80
2021/09/19 03:21:30;;;;;;;4.95;2.50;;;;;;;12.43;69.11;100781.53;5046685;28;20072;-80
2021/09/19 03:23:55;;;;;;;3.92;2.60;;;;;;;12.49;68.86;100775.28;5035061;28;20030;-80
2021/09/19 03:26:21;;;;;;;5.78;2.80;;;;;;;12.50;68.83;100779.69;5045783;28;20041;-80
2021/09/19 03:28:46;;;;;;;6.82;2.30;;;;;;;12.49;69.37;100781.44;5044169;28;20033;-80
2021/09/19 03:31:12;;;;;;;5.07;2.70;;;;;;;12.51;69.11;100773.50;5047455;28;20595;-80
2021/09/19 03:33:37;;;;;;;6.75;2.65;;;;;;;12.49;68.40;100781.44;5041923;28;20558;-80
2021/09/19 03:36:03;;;;;;;5.40;2.30;;;;;;;12.42;68.90;100779.78;5037522;28;20384;-80
2021/09/19 03:38:29;;;;;;;3.80;2.30;;;;;;;12.45;69.09;100779.75;5043430;28;20038;-80
2021/09/19 03:40:54;;;;;;;4.68;2.78;;;;;;;12.42;69.44;100787.72;5046377;28;20944;-80
2021/09/19 03:43:20;;;;;;;5.45;2.88;;;;;;;12.39;69.87;100790.41;5044635;28;20055;-80
2021/09/19 03:45:45;;;;;;;6.20;2.72;;;;;;;12.37;70.19;100783.38;5035874;28;20044;-80
2021/09/19 03:48:10;;;;;;;4.72;2.67;;;;;;;12.30;70.42;100786.94;5045683;28;20108;-80
2021/09/19 03:50:36;;;;;;;8.43;3.45;;;;;;;12.23;69.28;100788.75;5044618;28;20443;-80
2021/09/19 03:53:02;;;;;;;6.72;2.95;;;;;;;12.13;70.75;100792.38;5044911;28;20041;-80
2021/09/19 03:55:28;;;;;;;4.63;2.78;;;;;;;12.10;70.55;100792.41;5017771;28;20033;-80
2021/09/19 03:57:53;;;;;;;6.15;2.80;;;;;;;12.09;70.55;100791.53;5034955;28;20559;-80
2021/09/19 04:00:19;;;;;;;4.47;2.78;;;;;;;12.13;70.70;100784.44;5047383;28;20040;-81
2021/09/19 04:02:44;;;;;;;4.65;2.45;;;;;;;12.23;70.44;100788.75;5040807;28;20048;-81
2021/09/19 04:05:11;;;;;;;5.45;2.60;;;;;;;12.30;70.03;100784.31;5046031;28;20072;-80
2021/09/19 04:07:37;;;;;;;5.65;2.58;;;;;;;12.37;68.96;100786.88;5046136;28;20044;-80
2021/09/19 04:10:04;;;;;;;3.60;2.22;;;;;;;12.45;68.14;100789.47;5042309;28;20045;-81
2021/09/19 04:12:30;;;;;;;7.05;2.55;;;;;;;12.49;68.40;100789.38;5036930;28;20123;-81
2021/09/19 04:14:55;;;;;;;4.82;2.28;;;;;;;12.56;68.13;100795.50;5044617;28;20060;-81
2021/09/19 04:17:20;;;;;;;5.45;2.35;;;;;;;12.58;67.20;100787.56;5046183;28;20093;-80
2021/09/19 04:19:46;;;;;;;5.25;2.58;;;;;;;12.59;66.78;100787.53;5045758;28;20126;-80
2021/09/19 04:22:11;;;;;;;4.45;2.22;;;;;;;12.63;66.85;100788.41;5045369;28;20045;-81
2021/09/19 04:24:37;;;;;;;4.70;2.50;;;;;;;12.60;66.35;100784.00;5046171;28;20029;-80
2021/09/19 04:27:02;;;;;;;5.43;2.65;;;;;;;12.58;66.68;100795.50;5018565;28;20475;-80
2021/09/19 04:29:27;;;;;;;4.20;2.45;;;;;;;12.50;66.33;100785.00;5046533;28;20099;-81
2021/09/19 04:31:53;;;;;;;4.65;2.47;;;;;;;12.52;66.77;100795.56;5043372;28;20045;-80
2021/09/19 04:34:18;;;;;;;5.25;2.40;;;;;;;12.56;67.00;100798.16;5038977;28;20033;-80
2021/09/19 04:36:44;;;;;;;5.13;2.95;;;;;;;12.57;67.27;100797.25;5046412;28;20541;-80
2021/09/19 04:39:09;;;;;;;4.35;2.50;;;;;;;12.52;67.79;100796.41;5043910;28;20034;-80
2021/09/19 04:41:34;;;;;;;4.38;2.28;;;;;;;12.45;67.91;100800.03;5045677;28;20059;-80
2021/09/19 04:44:00;;;;;;;3.72;2.55;;;;;;;12.39;68.69;100797.44;5044637;28;20060;-81
2021/09/19 04:46:25;;;;;;;3.67;2.45;;;;;;;12.37;68.73;100802.75;5045121;28;20041;-81
2021/09/19 04:48:54;;;;;;;5.18;2.65;;;;;;;12.31;68.18;100797.50;5045042;28;20071;-80
2021/09/19 04:51:19;;;;;;;4.85;2.63;;;;;;;12.26;68.44;100799.31;5045123;28;20092;-80
2021/09/19 04:53:45;;;;;;;5.60;2.85;;;;;;;12.21;68.87;100801.16;5027313;28;20544;-80
2021/09/19 04:56:10;;;;;;;4.80;2.67;;;;;;;12.24;68.96;100806.41;5043591;28;20041;-80
2021/09/19 04:58:35;;;;;;;5.78;2.70;;;;;;;12.30;68.81;100802.81;5044797;28;20112;-80
2021/09/19 05:01:01;;;;;;;5.07;2.80;;;;;;;12.34;67.83;100808.09;5042633;28;20095;-80
2021/09/19 05:03:26;;;;;;;4.47;2.97;;;;;;;12.38;67.27;100806.28;5043598;28;20021;-80
2021/09/19 05:05:52;;;;;;;5.15;2.40;;;;;;;12.32;68.16;100809.00;5046365;28;20411;-80
2021/09/19 05:08:18;;;;;;;4.00;2.45;;;;;;;12.31;67.44;100801.94;5045615;28;20890;-80
2021/09/19 05:10:43;;;;;;;6.00;2.80;;;;;;;12.30;66.90;100800.19;5043361;28;20053;-80
2021/09/19 05:13:09;;;;;;;5.45;2.90;;;;;;;12.33;66.89;100810.72;5035468;28;20033;-81
2021/09/19 05:15:34;;;;;;;4.95;2.50;;;;;;;12.32;66.98;100815.16;5043554;28;20037;-80
2021/09/19 05:17:59;;;;;;;5.45;2.92;;;;;;;12.25;67.15;100809.03;5044098;28;20021;-81
2021/09/19 05:20:25;;;;;;;6.93;2.78;;;;;;;12.25;67.04;100805.50;5043301;28;20067;-81
2021/09/19 05:22:50;;;;;;;6.95;2.60;;;;;;;12.25;67.84;100808.16;5042964;28;20454;-81
2021/09/19 05:25:15;;;;;;;6.18;2.88;;;;;;;12.24;67.40;100807.28;5045999;28;20093;-82
2021/09/19 05:27:41;;;;;;;5.65;2.95;;;;;;;12.26;67.47;100794.91;5042766;28;20579;-81
2021/09/19 05:30:07;;;;;;;5.90;2.88;;;;;;;12.35;67.35;100793.94;5048469;28;20518;-81
2021/09/19 05:32:32;;;;;;;5.57;3.00;;;;;;;12.35;67.44;100795.72;5044322;28;20503;-81
2021/09/19 05:34:57;;;;;;;4.70;2.65;;;;;;;12.35;67.27;100801.03;5052361;28;20178;-81
2021/09/19 05:37:23;;;;;;;5.47;3.13;;;;;;;12.29;67.46;100801.97;5048213;28;20112;-81
2021/09/19 05:39:48;;;;;;;4.55;2.53;;;;;;;12.24;66.83;100802.00;5051269;28;20033;-81
2021/09/19 05:42:13;;;;;;;6.32;2.60;;;;;;;12.30;66.65;100800.19;5048595;28;20557;-80
2021/09/19 05:44:39;;;;;;;4.68;2.13;;;;;;;12.37;66.56;100796.59;5049940;28;20496;-80
2021/09/19 05:47:04;;;;;;;5.15;2.78;;;;;;;12.41;66.44;100798.31;5050094;28;20429;-80
2021/09/19 05:49:29;;;;;;;5.68;2.95;;;;;;;12.47;65.97;100806.19;5049244;28;20553;-80
2021/09/19 05:51:55;;;;;;;4.00;2.60;;;;;;;12.49;65.81;100807.91;5049513;28;20041;-80
2021/09/19 05:54:20;;;;;;;5.60;2.80;;;;;;;12.49;64.55;100797.31;5047989;28;20029;-80
2021/09/19 05:56:45;;;;;;;4.38;3.15;;;;;;;12.48;64.59;100806.19;5033276;28;20023;-80
2021/09/19 05:59:11;;;;;;;7.10;3.50;;;;;;;12.49;64.87;100813.22;5047805;28;20086;-81
2021/09/19 06:01:36;;;;;;;5.65;3.08;;;;;;;12.35;65.47;100814.25;5051106;28;20041;-80
2021/09/19 06:04:02;;;;;;;4.50;2.80;;;;;;;12.35;64.99;100811.59;5048202;28;20037;-80
2021/09/19 06:06:27;;;;;;;5.72;2.95;;;;;;;12.38;65.02;100807.16;5041553;28;20047;-80
2021/09/19 06:08:52;;;;;;;5.28;2.55;;;;;;;12.46;65.30;100809.72;5046756;28;20040;-81
2021/09/19 06:11:18;;;;;;;5.82;2.72;;;;;;;12.54;65.17;100812.31;5047950;28;20056;-81
2021/09/19 06:13:43;;;;;;;7.38;3.00;;;;;;;12.53;65.55;100811.44;5025222;28;20041;-80
2021/09/19 06:16:08;;;;;;;5.07;2.75;;;;;;;12.63;65.50;100814.88;5048330;28;20450;-80
2021/09/19 06:18:34;;;;;;;4.05;2.40;;;;;;;12.76;64.92;100819.16;5048472;28;20144;-81
2021/09/19 06:21:00;;;;;;;4.32;2.20;;;;;;;12.88;63.83;100816.34;5049604;28;20033;-81
2021/09/19 06:23:26;;;;;;;5.88;3.00;;;;;;;12.92;62.99;100804.84;5037862;28;20041;-81
2021/09/19 06:25:52;;;;;;;5.18;2.63;;;;;;;12.92;63.21;100820.72;5058474;28;20395;-81
2021/09/19 06:28:18;;;;;;;4.65;2.55;;;;;;;13.02;62.71;100813.56;5047699;28;20107;-81
2021/09/19 06:30:43;;;;;;;4.75;2.70;;;;;;;13.14;62.54;100808.09;5041188;28;20487;-81
2021/09/19 06:33:08;;;;;;;6.32;2.75;;;;;;;13.25;62.69;100810.59;5047986;28;20043;-81
2021/09/19 06:35:34;;;;;;;4.65;2.63;;;;;;;13.27;63.00;100802.69;5032638;28;20129;-81
2021/09/19 06:37:59;;;;;;;4.10;2.40;;;;;;;13.27;62.98;100808.84;5030796;28;20037;-81
2021/09/19 06:40:25;;;;;;;4.63;2.55;;;;;;;13.28;62.77;100801.78;5049490;28;20033;-81
2021/09/19 06:42:50;;;;;;;3.85;2.53;;;;;;;13.35;62.59;100808.75;5043934;28;20459;-81
2021/09/19 06:45:15;;;;;;;5.30;2.90;;;;;;;13.36;61.44;100806.09;5036439;28;20029;-81
2021/09/19 06:47:43;;;;;;;3.85;2.30;;;;;;;13.27;62.11;100808.00;5044167;28;20084;-81
2021/09/19 06:50:10;;;;;;;3.88;2.65;;;;;;;13.27;62.62;100806.22;5047049;28;20021;-82
2021/09/19 06:52:36;;;;;;;4.75;2.30;;;;;;;13.36;62.39;100807.84;5040848;28;20107;-82
2021/09/19 06:55:01;;;;;;;4.60;2.97;;;;;;;13.42;61.97;100802.50;5028973;28;20495;-81
2021/09/19 06:57:26;;;;;;;3.75;2.30;;;;;;;13.47;61.71;100800.66;5043495;28;20044;-81
2021/09/19 06:59:52;;;;;;;4.07;2.63;;;;;;;13.54;60.87;100798.78;5046420;28;20090;-81
2021/09/19 07:02:17;;;;;;;5.15;2.60;;;;;;;13.55;60.65;100793.47;5043121;28;20037;-82
2021/09/19 07:04:43;;;;;;;4.75;2.70;;;;;;;13.57;60.97;100790.78;5045628;28;20044;-80
2021/09/19 07:07:08;;;;;;;3.47;2.30;;;;;;;13.57;61.24;100791.66;5043823;28;20112;-81
2021/09/19 07:09:34;;;;;;;5.35;2.38;;;;;;;13.66;60.54;100790.66;5039886;28;20495;-81
2021/09/19 07:11:59;;;;;;;4.28;2.40;;;;;;;13.66;60.80;100790.66;5045002;28;20030;-81
2021/09/19 07:14:25;;;;;;;4.03;2.40;;;;;;;13.79;61.21;100792.22;5043378;28;20044;-81
2021/09/19 07:16:50;;;;;;;3.78;2.42;;;;;;;13.78;60.44;100793.13;5044807;28;20030;-82
2021/09/19 07:19:16;;;;;;;4.50;2.35;;;;;;;13.73;60.59;100789.66;5027751;28;20061;-81
2021/09/19 07:21:41;;;;;;;6.32;2.80;;;;;;;13.73;59.83;100792.31;5017908;28;20033;-81
2021/09/19 07:24:07;;;;;;;6.97;2.63;;;;;;;13.70;60.17;100796.78;5045513;28;20032;-81
2021/09/19 07:26:32;;;;;;;3.97;2.67;;;;;;;13.83;60.33;100808.97;5017011;28;20518;-81
2021/09/19 07:28:58;;;;;;;3.83;2.40;;;;;;;13.86;60.78;100802.72;5045574;28;20037;-81
2021/09/19 07:31:23;;;;;;;3.20;2.17;;;;;;;13.90;60.11;100799.13;5042812;28;20033;-81
2021/09/19 07:33:50;;;;;;;5.80;2.50;;;;;;;13.86;59.29;100800.06;5019753;28;20483;-81
2021/09/19 07:36:16;;;;;;;3.65;2.17;;;;;;;13.98;59.52;100803.41;5026313;28;20043;-81
2021/09/19 07:38:42;;;;;;;3.72;2.55;;;;;;;14.08;59.35;100803.28;5041805;28;20462;-82
2021/09/19 07:41:07;;;;;;;3.55;2.47;;;;;;;14.16;58.79;100796.06;5047298;28;20030;-81
2021/09/19 07:43:33;;;;;;;4.00;2.25;;;;;;;14.16;57.58;100796.06;5039197;28;20510;-81
2021/09/19 07:45:58;;;;;;;5.13;2.45;;;;;;;14.15;57.73;100794.31;5018310;28;20037;-81
2021/09/19 07:48:25;;;;;;;5.13;3.25;;;;;;;14.14;58.44;100808.47;5034205;28;20035;-82
2021/09/19 07:50:51;;;;;;;4.22;2.50;;;;;;;14.27;58.34;100806.50;5033827;28;20049;-81
2021/09/19 07:53:16;;;;;;;4.70;2.40;;;;;;;14.36;58.29;100819.63;5038807;28;20079;-80
2021/09/19 07:55:42;;;;;;;5.38;2.42;;;;;;;14.42;56.94;100817.72;5037857;28;20373;-80
2021/09/19 07:58:08;;;;;;;4.13;2.67;;;;;;;14.50;57.46;100811.41;5024885;28;20029;-80
2021/09/19 08:00:33;;;;;;;4.88;2.60;;;;;;;14.62;57.93;100817.44;5045405;28;20044;-82
2021/09/19 08:02:58;;;;;;;4.35;2.42;;;;;;;14.81;57.60;100817.94;5040665;28;20067;-82
2021/09/19 08:05:24;;;;;;;4.88;2.70;;;;;;;14.81;56.65;100825.06;5044293;28;20425;-80
2021/09/19 08:07:50;;;;;;;4.00;2.63;;;;;;;14.85;56.52;100830.25;5029297;28;20057;-81
2021/09/19 08:10:17;;;;;;;4.18;2.50;;;;;;;15.02;56.74;100826.41;5043762;28;20036;-81
2021/09/19 08:12:46;;;;;;;4.25;2.45;;;;;;;15.18;56.79;100829.66;5037073;28;20112;-81
2021/09/19 08:15:12;;;;;;;4.93;2.97;;;;;;;15.29;56.22;100830.28;5037363;28;20030;-82
2021/09/19 08:17:38;;;;;;;4.90;2.42;;;;;;;15.28;55.94;100823.22;5014170;28;20029;-81
2021/09/19 08:20:04;;;;;;;3.83;2.60;;;;;;;15.15;55.17;100832.38;5034476;28;20041;-81
2021/09/19 08:22:29;;;;;;;5.60;2.60;;;;;;;15.16;55.73;100834.97;5029609;28;20030;-81
2021/09/19 08:24:54;;;;;;;3.40;2.35;;;;;;;15.25;55.95;100831.28;5030557;28;20064;-82
2021/09/19 08:27:20;;;;;;;3.85;2.65;;;;;;;15.34;56.19;100829.28;5013058;28;20037;-82
2021/09/19 08:29:45;;;;;;;5.47;2.47;;;;;;;15.44;55.56;100832.63;5034840;28;20037;-82
2021/09/19 08:32:10;;;;;;;3.60;2.42;;;;;;;15.39;54.42;100830.97;5033000;28;20045;-80
2021/09/19 08:34:38;;;;;;;4.82;2.45;;;;;;;15.38;54.98;100835.44;5031640;28;20120;-82
2021/09/19 08:37:04;;;;;;;3.95;2.30;;;;;;;15.51;55.37;100833.34;5036984;28;20036;-83
2021/09/19 08:39:29;;;;;;;3.65;2.28;;;;;;;15.51;54.48;100836.00;5036616;28;20029;-82
2021/09/19 08:41:55;;;;;;;4.38;2.22;;;;;;;15.59;54.74;100834.09;5031847;28;20123;-83
2021/09/19 08:44:20;;;;;;;3.60;2.40;;;;;;;15.78;53.79;100843.44;5016101;28;20045;-83
2021/09/19 08:46:46;;;;;;;4.60;2.70;;;;;;;16.08;53.33;100838.28;5038222;28;20037;-82
2021/09/19 08:49:13;;;;;;;4.47;2.55;;;;;;;16.24;51.95;100837.94;5042675;28;20411;-83
2021/09/19 08:51:39;;;;;;;6.20;2.63;;;;;;;16.20;51.87;100840.66;5043680;28;20107;-83
2021/09/19 08:54:04;;;;;;;5.18;2.72;;;;;;;16.13;51.94;100841.72;5039254;28;20492;-83
2021/09/19 08:56:30;;;;;;;4.43;2.47;;;;;;;16.21;51.46;100841.53;5040657;28;20040;-83
2021/09/19 08:58:55;;;;;;;4.35;2.58;;;;;;;16.35;51.32;100841.22;5033117;28;20103;-82
2021/09/19 09:01:21;;;;;;;5.25;2.50;;;;;;;16.53;49.92;100840.75;5044998;28;20037;-82
2021/09/19 09:03:48;;;;;;;6.05;2.67;;;;;;;16.53;48.76;100839.84;5034186;28;20029;-82
2021/09/19 09:06:18;;;;;;;4.95;2.72;;;;;;;16.55;47.99;100836.25;5024722;28;20041;-82
2021/09/19 09:08:44;;;;;;;4.80;2.80;;;;;;;16.62;48.79;100834.31;5047649;28;20032;-83
2021/09/19 09:11:11;;;;;;;4.78;2.65;;;;;;;16.53;49.04;100834.53;5043007;28;20029;-83
2021/09/19 09:13:39;;;;;;;3.92;2.83;;;;;;;16.64;48.88;100830.69;5028349;28;20029;-83
2021/09/19 09:16:09;;;;;;;3.67;2.40;;;;;;;16.62;49.94;100836.97;5041250;28;20076;-81
2021/09/19 09:18:43;;;;;;;4.43;2.80;;;;;;;16.48;49.70;100840.00;5049395;28;20102;-82
2021/09/19 09:21:14;;;;;;;3.70;2.40;;;;;;;16.53;49.97;100840.75;5047535;28;20033;-82
2021/09/19 09:23:42;;;;;;;3.40;2.20;;;;;;;16.69;49.59;100835.91;5048036;28;20037;-82
2021/09/19 09:26:27;;;;;;;3.58;2.60;;;;;;;16.76;48.92;100831.25;5047917;28;20037;-80
2021/09/19 09:29:00;;;;;;;4.05;2.50;;;;;;;16.88;49.83;100835.44;5043865;28;20037;-80
2021/09/19 09:31:33;;;;;;;4.03;2.70;;;;;;;16.93;49.67;100836.19;5022338;28;20389;-80
2021/09/19 09:34:02;;;;;;;3.47;2.17;;;;;;;17.04;50.01;100832.28;5031117;28;20137;-80
2021/09/19 09:36:38;;;;;;;5.10;2.72;;;;;;;17.13;48.59;100835.59;5059386;28;20025;-78
2021/09/19 09:39:24;;;;;;;4.47;3.05;;;;;;;17.24;45.82;100830.88;5051486;28;20037;-79
2021/09/19 09:41:51;;;;;;;4.45;2.75;;;;;;;17.39;45.88;100833.06;5045739;28;20029;-81
2021/09/19 09:44:31;;;;;;;4.50;2.78;;;;;;;17.41;46.21;100836.56;5049145;28;20045;-79
2021/09/19 09:46:58;;;;;;;5.13;2.67;;;;;;;17.66;46.42;100834.03;5051842;28;20086;-80
2021/09/19 09:49:34;;;;;;;4.18;2.40;;;;;;;17.84;44.43;100826.41;5030364;28;20033;-80
2021/09/19 09:52:07;;;;;;;4.13;2.60;;;;;;;17.31;43.49;100821.75;5047679;28;20057;-79
2021/09/19 09:54:45;;;;;;;3.33;2.22;;;;;;;17.13;44.50;100824.94;5026221;28;20034;-80
2021/09/19 09:57:12;;;;;;;4.13;2.33;;;;;;;17.28;45.39;100835.16;5054678;28;20061;-80
2021/09/19 09:59:37;;;;;;;3.67;2.22;;;;;;;17.27;44.07;100820.97;5052856;28;20037;-80
2021/09/19 10:02:03;;;;;;;3.60;2.10;;;;;;;17.56;44.10;100821.03;5041682;28;20071;-81
2021/09/19 10:04:29;;;;;;;3.90;2.10;;;;;;;17.82;44.21;100830.94;5054881;28;20395;-80
2021/09/19 10:06:55;;;;;;;3.28;2.25;;;;;;;17.95;42.35;100827.81;5053314;28;20093;-79
2021/09/19 10:09:22;;;;;;;4.05;2.17;;;;;;;18.00;42.68;100824.09;5056656;28;20076;-79
2021/09/19 10:11:47;;;;;;;3.92;2.22;;;;;;;18.06;43.23;100821.25;5056547;28;20040;-80
2021/09/19 10:14:13;;;;;;;4.53;2.35;;;;;;;18.12;42.90;100819.25;5060159;28;20056;-81
2021/09/19 10:16:38;;;;;;;3.75;2.30;;;;;;;18.12;42.81;100813.03;5057508;28;20112;-80
2021/09/19 10:19:04;;;;;;;4.60;2.50;;;;;;;18.22;43.37;100817.16;5035100;28;20037;-79
2021/09/19 10:21:31;;;;;;;4.50;2.40;;;;;;;18.28;44.11;100814.25;5055293;28;20037;-79
2021/09/19 10:23:57;;;;;;;3.67;2.10;;;;;;;18.38;43.71;100805.00;5033508;28;20052;-80
2021/09/19 10:26:23;;;;;;;3.78;2.13;;;;;;;18.40;43.25;100813.88;5038102;28;20466;-80
2021/09/19 10:28:52;;;;;;;4.85;2.38;;;;;;;18.52;42.41;100811.69;5058594;28;20032;-80
2021/09/19 10:31:25;;;;;;;6.22;2.45;;;;;;;18.43;42.05;100814.69;5053349;28;20041;-79
2021/09/19 10:33:50;;;;;;;;;;;;;;;18.33;41.74;100812.31;5032651;28;20069;-80
2021/09/19 10:36:32;;;;;;;3.55;1.65;;;;;;;18.20;41.38;100802.97;5060119;28;19972;-80
2021/09/19 10:39:16;;;;;;;3.22;2.10;;;;;;;17.92;40.62;100817.25;5045834;28;20147;-80
2021/09/19 10:42:04;;;;;;;4.28;2.30;;;;;;;17.55;41.19;100811.25;5059912;28;20075;-80
2021/09/19 10:44:34;;;;;;;3.67;2.60;;;;;;;17.43;42.89;100824.06;5057459;28;20495;-80
2021/09/19 10:47:05;;;;;;;4.00;2.38;;;;;;;17.57;43.63;100818.28;5061347;28;20040;-82
2021/09/19 10:49:34;;;;;;;4.00;2.30;;;;;;;17.58;41.73;100821.81;5031477;28;20038;-80
2021/09/19 10:51:59;;;;;;;4.47;2.50;;;;;;;17.47;42.25;100822.16;5058809;28;20043;-81
2021/09/19 10:54:44;;;;;;;4.68;2.55;;;;;;;17.28;42.24;100817.38;5048831;28;20057;-80
2021/09/19 10:57:22;;;;;;;4.13;2.60;;;;;;;17.23;42.65;100821.09;5049664;28;20041;-80
2021/09/19 11:00:17;;;;;;;6.07;2.38;;;;;;;17.42;43.19;100825.00;5055158;28;20042;-80
2021/09/19 11:03:00;;;;;;;3.63;2.50;;;;;;;17.16;42.59;100814.19;5044607;28;20037;-81
2021/09/19 11:05:29;;;;;;;;;;;;;;;17.34;42.89;100818.09;5057514;28;20060;-80
2021/09/19 11:08:07;;;;;;;3.50;2.20;;;;;;;17.55;41.73;100811.25;5059516;28;19983;-80
2021/09/19 11:10:55;;;;;;;3.70;2.40;;;;;;;17.67;42.08;100808.22;5052419;28;20033;-80
2021/09/19 11:13:22;;;;;;;3.75;2.42;;;;;;;17.33;43.84;100817.25;5029193;28;20068;-80
2021/09/19 11:16:03;;;;;;;4.43;2.78;;;;;;;17.42;43.00;100806.31;5059971;28;20025;-79
2021/09/19 11:18:29;;;;;;;3.95;2.55;;;;;;;17.73;43.55;100802.69;5043994;28;20129;-80
2021/09/19 11:21:09;;;;;;;3.83;2.22;;;;;;;18.06;42.74;100802.56;5057798;28;20074;-79
2021/09/19 11:23:38;;;;;;;5.10;2.45;;;;;;;18.21;43.46;100795.81;5045949;28;20527;-79
2021/09/19 11:26:04;;;;;;;4.45;2.47;;;;;;;18.35;42.76;100798.91;5054320;28;20033;-79